Flight Track Log - Related Links

Times and Time Zones

All times are in EDT time to prevent confusion due to time zone crossing. See the WBR2634 flight status page for this flight to view local times or setup timezone preferences in your user account.

Time Position Orientation Groundspeed Altitude Reporting Facility
EDT Latitude Longitude Course Direction KTS MPH feet Rate Location/Type
Fri 06:00:58 PM 40.7689 -91.0769 73° East 138 159 2,300  Level Chicago Center
Fri 06:02:00 PM 40.8485 -90.8058 72° East  Level FlightAware Approximate
Fri 06:02:00 PM 40.7817 -91.0378 67° East 120 138 3,000  Level Chicago Center
Fri 06:03:00 PM 40.8667 -90.7578 90° East  Level FlightAware Approximate
Fri 06:03:02 PM 40.7983 -90.9878 66° East 122 140 3,700  Level Chicago Center
Fri 06:04:00 PM 40.8778 -90.7053 72° East  Level FlightAware Approximate
Fri 06:04:04 PM 40.8125 -90.9464 66° East 123 142 4,500  Level Chicago Center
Fri 06:05:00 PM 40.8904 -90.6529 73° East  Level FlightAware Approximate
Fri 06:05:06 PM 40.8267 -90.9061 65° Northeast 122 140 5,100  Level Chicago Center
Fri 06:06:00 PM 40.9026 -90.6004 73° East  Level FlightAware Approximate
Fri 06:06:08 PM 40.8425 -90.8658 63° Northeast 123 142 5,800  Level Chicago Center
Fri 06:07:11 PM 40.8578 -90.8261 63° Northeast 123 142 6,400 576 Climbing Chicago Center
Fri 06:08:13 PM 40.8711 -90.7839 67° East 123 142 7,000 581 Climbing Chicago Center
Fri 06:09:15 PM 40.8906 -90.7342 63° Northeast 127 146 7,600 581 Climbing Chicago Center
Fri 06:10:17 PM 40.9058 -90.6894 66° East 132 152 8,200 532 Climbing Chicago Center
Fri 06:11:19 PM 40.9189 -90.6450 69° East 132 152 8,700 387 Climbing Chicago Center
Fri 06:12:21 PM 40.9353 -90.6003 64° Northeast 134 154 9,000 145 Climbing Chicago Center
Fri 06:13:23 PM 40.9522 -90.5497 66° East 146 168 9,000  Level Chicago Center
Fri 06:14:25 PM 40.9719 -90.4997 62° Northeast 152 175 9,000  Level Chicago Center
Fri 06:15:27 PM 40.9881 -90.4453 69° East 157 181 9,000  Level Chicago Center
Fri 06:16:29 PM 41.0097 -90.3858 64° Northeast 152 175 9,000  Level Chicago Center
Fri 06:17:31 PM 41.0264 -90.3369 66° East 149 171 9,000  Level Chicago Center
Fri 06:18:34 PM 41.0461 -90.2881 62° Northeast 149 171 9,000  Level Chicago Center
Fri 06:19:36 PM 41.0625 -90.2361 67° East 151 174 9,000  Level Chicago Center
Fri 06:20:38 PM 41.0819 -90.1867 62° Northeast 151 174 9,000  Level Chicago Center
Fri 06:21:40 PM 41.0997 -90.1364 65° Northeast 150 173 9,000  Level Chicago Center
Fri 06:22:42 PM 41.1214 -90.0736 65° Northeast 154 177 9,000  Level Chicago Center
Fri 06:23:44 PM 41.1414 -90.0228 62° Northeast 155 178 9,000 -48 Level Chicago Center
Fri 06:24:46 PM 41.1575 -89.9700 68° East 154 177 8,900  Descending Chicago Center
Fri 06:25:48 PM 41.1753 -89.9172 66° East 155 178 9,000 48 Climbing Chicago Center
Fri 06:26:50 PM 41.1936 -89.8656 65° Northeast 155 178 9,000  Level Chicago Center
Fri 06:27:52 PM 41.2111 -89.8133 66° East 155 178 9,000  Level Chicago Center
Fri 06:28:54 PM 41.2292 -89.7608 65° Northeast 155 178 9,000 -48 Level Chicago Center
Fri 06:29:56 PM 41.2494 -89.6975 67° East 156 180 8,900  Descending Chicago Center
Fri 06:30:58 PM 41.2667 -89.6442 67° East 156 180 9,000 48 Climbing Chicago Center
Fri 06:32:01 PM 41.2856 -89.5939 63° Northeast 153 176 9,000  Level Chicago Center
Fri 06:33:03 PM 41.3039 -89.5414 65° Northeast 154 177 9,000  Level Chicago Center
Fri 06:34:05 PM 41.3214 -89.4903 65° Northeast 152 175 9,000  Level Chicago Center
Fri 06:35:07 PM 41.3400 -89.4389 64° Northeast 155 178 9,000  Level Chicago Center
Fri 06:36:09 PM 41.3608 -89.3761 66° East 154 177 9,000 -48 Level Chicago Center
Fri 06:37:11 PM 41.3781 -89.3239 66° East 154 177 8,900 -48 Descending Chicago Center
Fri 06:38:13 PM 41.3953 -89.2706 67° East 156 180 8,900  Level Chicago Center
Fri 06:39:15 PM 41.4122 -89.2175 67° East 156 180 8,900  Level Chicago Center
Fri 06:40:17 PM 41.4289 -89.1681 66° East 150 173 8,900  Level Chicago Center
Fri 06:41:19 PM 41.4472 -89.1175 64° Northeast 152 175 8,900 48 Level Chicago Center
Fri 06:42:21 PM 41.4683 -89.0575 65° Northeast 151 174 9,000 48 Climbing Chicago Center
Fri 06:43:23 PM 41.4869 -89.0092 63° Northeast 148 170 9,000  Level Chicago Center
Fri 06:44:26 PM 41.5017 -88.9578 69° East 147 169 9,000 -192 Level Chicago Center
Fri 06:45:28 PM 41.5186 -88.9047 67° East 155 178 8,600 -435 Descending Chicago Center
Fri 06:46:30 PM 41.5356 -88.8506 67° East 157 181 8,100 -242 Descending Chicago Center
Fri 06:47:32 PM 41.5581 -88.7875 64° Northeast 158 182 8,100  Level Chicago Center
Fri 06:48:34 PM 41.5753 -88.7350 66° East 156 180 8,100  Level Chicago Center
Fri 06:49:36 PM 41.5931 -88.6831 65° Northeast 156 180 8,100 -48 Level Chicago Center
Fri 06:50:38 PM 41.6097 -88.6300 67° East 154 177 8,000 -48 Descending Chicago Center
Fri 06:51:40 PM 41.6361 -88.5875 50° Northeast 151 174 8,000 48 Level Chicago Center
Fri 06:52:43 PM 41.6525 -88.5267 70° East 148 170 8,100  Climbing Chicago Center
Fri 06:53:44 PM 41.6547 -88.4706 87° East 150 173 8,000 -195 Descending Chicago Center
Fri 06:54:46 PM 41.6631 -88.4167 78° East 149 171 7,700 -435 Descending Chicago Center
Fri 06:55:48 PM 41.7008 -88.3875 30° Northeast 154 177 7,100 -336 Descending Chicago Center
Fri 06:56:51 PM 41.7414 -88.3806 North 155 178 7,000 -48 Descending Chicago Center
Fri 06:57:53 PM 41.7914 -88.3942 349° North 154 177 7,000  Level Chicago Center
Fri 06:58:55 PM 41.8344 -88.4003 354° North 154 177 7,000 48 Level Chicago Center
Fri 06:59:57 PM 41.8694 -88.3758 27° Northeast 153 176 7,100 -290 Climbing Chicago Center
Fri 07:00:59 PM 41.9028 -88.3358 42° Northeast 165 190 6,400 -774 Descending Chicago Center
Fri 07:02:01 PM 41.9283 -88.2792 59° Northeast 176 203 5,500 -726 Descending Chicago Center
Fri 07:03:03 PM 41.9553 -88.2233 57° Northeast 179 206 4,900 -726 Descending Chicago Center
Fri 07:04:05 PM 41.9675 -88.1450 78° East 181 208 4,000 -968 Descending Chicago Center
Fri 07:05:07 PM 41.9683 -88.0828 89° East 176 203 2,900 -968 Descending Chicago Center
Fri 07:06:09 PM 41.9686 -88.0278 90° East 164 189 2,000 -677 Descending Chicago Center
Fri 07:07:11 PM 41.9681 -87.9700 91° East 156 180 1,500 -484 Descending Chicago Center
Fri 07:09:00 PM 41.9667 -87.9000 76° East  Level FlightAware Approximate
Fri 07:16:00 PM 41.9817 -87.9067 76° East  Level Estimated

Login

Don't have an account? Register now (free) for customized features, flight alerts, and more!